sensor_id;sensor_type;location;lat;lon;timestamp;P1;durP1;ratioP1;P2;durP2;ratioP2
83184;SDS011;73080;48.768;11.528;2023-12-22T00:02:01;2.17;;;0.63;;
83184;SDS011;73080;48.768;11.528;2023-12-22T00:04:26;2.20;;;0.43;;
83184;SDS011;73080;48.768;11.528;2023-12-22T00:06:58;0.97;;;0.30;;
83184;SDS011;73080;48.768;11.528;2023-12-22T00:09:23;1.85;;;0.50;;
83184;SDS011;73080;48.768;11.528;2023-12-22T00:11:49;4.40;;;0.50;;
83184;SDS011;73080;48.768;11.528;2023-12-22T00:14:14;3.10;;;0.60;;
83184;SDS011;73080;48.768;11.528;2023-12-22T00:16:39;1.48;;;0.52;;
83184;SDS011;73080;48.768;11.528;2023-12-22T00:19:05;1.30;;;0.50;;
83184;SDS011;73080;48.768;11.528;2023-12-22T00:21:30;3.25;;;0.70;;
83184;SDS011;73080;48.768;11.528;2023-12-22T00:23:55;3.33;;;0.50;;
83184;SDS011;73080;48.768;11.528;2023-12-22T00:26:21;1.43;;;0.50;;
83184;SDS011;73080;48.768;11.528;2023-12-22T00:28:49;3.45;;;0.60;;
83184;SDS011;73080;48.768;11.528;2023-12-22T00:31:14;3.88;;;0.88;;
83184;SDS011;73080;48.768;11.528;2023-12-22T00:33:40;1.50;;;0.67;;
83184;SDS011;73080;48.768;11.528;2023-12-22T00:36:05;4.30;;;0.40;;
83184;SDS011;73080;48.768;11.528;2023-12-22T00:38:31;1.67;;;0.60;;
83184;SDS011;73080;48.768;11.528;2023-12-22T00:40:56;3.90;;;0.98;;
83184;SDS011;73080;48.768;11.528;2023-12-22T00:43:21;3.28;;;0.85;;
83184;SDS011;73080;48.768;11.528;2023-12-22T00:45:47;3.63;;;1.40;;
83184;SDS011;73080;48.768;11.528;2023-12-22T00:48:12;3.60;;;0.73;;
83184;SDS011;73080;48.768;11.528;2023-12-22T00:50:37;2.00;;;1.10;;
83184;SDS011;73080;48.768;11.528;2023-12-22T00:53:03;2.55;;;0.47;;
83184;SDS011;73080;48.768;11.528;2023-12-22T00:55:28;3.63;;;0.52;;
83184;SDS011;73080;48.768;11.528;2023-12-22T00:57:54;1.05;;;0.50;;
83184;SDS011;73080;48.768;11.528;2023-12-22T01:00:25;2.33;;;0.57;;
83184;SDS011;73080;48.768;11.528;2023-12-22T01:02:51;1.80;;;0.43;;
83184;SDS011;73080;48.768;11.528;2023-12-22T01:05:16;4.35;;;0.70;;
83184;SDS011;73080;48.768;11.528;2023-12-22T01:07:41;2.17;;;0.30;;
83184;SDS011;73080;48.768;11.528;2023-12-22T01:10:07;1.77;;;0.53;;
83184;SDS011;73080;48.768;11.528;2023-12-22T01:12:35;2.85;;;0.70;;
83184;SDS011;73080;48.768;11.528;2023-12-22T01:15:01;2.63;;;0.65;;
83184;SDS011;73080;48.768;11.528;2023-12-22T01:17:26;3.37;;;0.73;;
83184;SDS011;73080;48.768;11.528;2023-12-22T01:19:51;3.30;;;0.50;;
83184;SDS011;73080;48.768;11.528;2023-12-22T01:22:17;4.00;;;0.67;;
83184;SDS011;73080;48.768;11.528;2023-12-22T01:24:45;3.58;;;0.57;;
83184;SDS011;73080;48.768;11.528;2023-12-22T01:27:14;2.58;;;0.40;;
83184;SDS011;73080;48.768;11.528;2023-12-22T01:29:39;2.72;;;0.52;;
83184;SDS011;73080;48.768;11.528;2023-12-22T01:32:05;2.67;;;1.13;;
83184;SDS011;73080;48.768;11.528;2023-12-22T01:34:30;6.07;;;0.70;;
83184;SDS011;73080;48.768;11.528;2023-12-22T01:36:59;3.00;;;1.05;;
83184;SDS011;73080;48.768;11.528;2023-12-22T01:39:24;6.65;;;0.95;;
83184;SDS011;73080;48.768;11.528;2023-12-22T01:41:50;3.90;;;0.63;;
83184;SDS011;73080;48.768;11.528;2023-12-22T01:44:15;3.92;;;1.00;;
83184;SDS011;73080;48.768;11.528;2023-12-22T01:46:40;3.95;;;0.63;;
83184;SDS011;73080;48.768;11.528;2023-12-22T01:49:06;5.15;;;0.70;;
83184;SDS011;73080;48.768;11.528;2023-12-22T01:51:33;4.25;;;1.20;;
83184;SDS011;73080;48.768;11.528;2023-12-22T01:54:02;4.30;;;0.75;;
83184;SDS011;73080;48.768;11.528;2023-12-22T01:56:33;3.05;;;0.60;;
83184;SDS011;73080;48.768;11.528;2023-12-22T01:59:00;2.88;;;0.45;;
83184;SDS011;73080;48.768;11.528;2023-12-22T02:01:29;5.63;;;1.00;;
83184;SDS011;73080;48.768;11.528;2023-12-22T02:03:54;3.05;;;0.80;;
83184;SDS011;73080;48.768;11.528;2023-12-22T02:06:21;0.93;;;0.28;;
83184;SDS011;73080;48.768;11.528;2023-12-22T02:08:47;2.67;;;0.80;;
83184;SDS011;73080;48.768;11.528;2023-12-22T02:11:13;2.15;;;0.50;;
83184;SDS011;73080;48.768;11.528;2023-12-22T02:13:39;3.72;;;0.90;;
83184;SDS011;73080;48.768;11.528;2023-12-22T02:16:06;2.85;;;0.60;;
83184;SDS011;73080;48.768;11.528;2023-12-22T02:18:48;1.83;;;0.52;;
83184;SDS011;73080;48.768;11.528;2023-12-22T02:21:17;2.30;;;0.68;;
83184;SDS011;73080;48.768;11.528;2023-12-22T02:23:42;1.93;;;0.40;;
83184;SDS011;73080;48.768;11.528;2023-12-22T02:29:08;1.58;;;0.40;;
83184;SDS011;73080;48.768;11.528;2023-12-22T02:31:40;1.65;;;0.40;;
83184;SDS011;73080;48.768;11.528;2023-12-22T02:34:13;4.70;;;0.47;;
83184;SDS011;73080;48.768;11.528;2023-12-22T02:36:43;1.63;;;0.40;;
83184;SDS011;73080;48.768;11.528;2023-12-22T02:39:17;2.20;;;0.45;;
83184;SDS011;73080;48.768;11.528;2023-12-22T02:41:44;1.90;;;0.55;;
83184;SDS011;73080;48.768;11.528;2023-12-22T02:44:10;2.88;;;0.85;;
83184;SDS011;73080;48.768;11.528;2023-12-22T02:46:35;3.07;;;0.70;;
83184;SDS011;73080;48.768;11.528;2023-12-22T02:49:01;1.50;;;0.37;;
83184;SDS011;73080;48.768;11.528;2023-12-22T02:51:26;3.58;;;0.80;;
83184;SDS011;73080;48.768;11.528;2023-12-22T02:53:52;1.95;;;1.17;;
83184;SDS011;73080;48.768;11.528;2023-12-22T02:56:17;2.88;;;0.47;;
83184;SDS011;73080;48.768;11.528;2023-12-22T02:58:42;0.90;;;0.32;;
83184;SDS011;73080;48.768;11.528;2023-12-22T03:01:08;1.67;;;0.30;;
83184;SDS011;73080;48.768;11.528;2023-12-22T03:03:33;0.93;;;0.30;;
83184;SDS011;73080;48.768;11.528;2023-12-22T03:05:59;2.07;;;0.37;;
83184;SDS011;73080;48.768;11.528;2023-12-22T03:08:24;0.80;;;0.30;;
83184;SDS011;73080;48.768;11.528;2023-12-22T03:10:49;1.52;;;0.60;;
83184;SDS011;73080;48.768;11.528;2023-12-22T03:13:15;1.88;;;0.47;;
83184;SDS011;73080;48.768;11.528;2023-12-22T03:15:40;1.67;;;0.60;;
83184;SDS011;73080;48.768;11.528;2023-12-22T03:18:06;0.90;;;0.25;;
83184;SDS011;73080;48.768;11.528;2023-12-22T03:20:34;0.60;;;0.22;;
83184;SDS011;73080;48.768;11.528;2023-12-22T03:22:59;1.03;;;0.50;;
83184;SDS011;73080;48.768;11.528;2023-12-22T03:25:24;0.70;;;0.30;;
83184;SDS011;73080;48.768;11.528;2023-12-22T03:27:53;1.70;;;0.38;;
83184;SDS011;73080;48.768;11.528;2023-12-22T03:30:18;0.40;;;0.15;;
83184;SDS011;73080;48.768;11.528;2023-12-22T03:32:44;1.77;;;1.08;;
83184;SDS011;73080;48.768;11.528;2023-12-22T03:35:09;5.28;;;0.45;;
83184;SDS011;73080;48.768;11.528;2023-12-22T03:37:34;1.90;;;0.30;;
83184;SDS011;73080;48.768;11.528;2023-12-22T03:40:03;0.43;;;0.20;;
83184;SDS011;73080;48.768;11.528;2023-12-22T03:42:28;2.42;;;0.20;;
83184;SDS011;73080;48.768;11.528;2023-12-22T03:44:54;2.33;;;0.50;;
83184;SDS011;73080;48.768;11.528;2023-12-22T03:47:19;0.90;;;0.45;;
83184;SDS011;73080;48.768;11.528;2023-12-22T03:49:48;0.93;;;0.30;;
83184;SDS011;73080;48.768;11.528;2023-12-22T03:52:16;1.23;;;0.75;;
83184;SDS011;73080;48.768;11.528;2023-12-22T03:54:42;2.03;;;0.30;;
83184;SDS011;73080;48.768;11.528;2023-12-22T03:57:07;0.65;;;0.22;;
83184;SDS011;73080;48.768;11.528;2023-12-22T03:59:33;1.13;;;0.30;;
83184;SDS011;73080;48.768;11.528;2023-12-22T04:01:58;0.85;;;0.40;;
83184;SDS011;73080;48.768;11.528;2023-12-22T04:04:23;1.40;;;0.40;;
83184;SDS011;73080;48.768;11.528;2023-12-22T04:06:49;1.35;;;0.50;;
83184;SDS011;73080;48.768;11.528;2023-12-22T04:09:15;2.42;;;0.40;;
83184;SDS011;73080;48.768;11.528;2023-12-22T04:11:40;1.02;;;0.35;;
83184;SDS011;73080;48.768;11.528;2023-12-22T04:14:06;1.38;;;0.47;;
83184;SDS011;73080;48.768;11.528;2023-12-22T04:16:31;1.20;;;0.40;;
83184;SDS011;73080;48.768;11.528;2023-12-22T04:18:56;1.17;;;0.30;;
83184;SDS011;73080;48.768;11.528;2023-12-22T04:21:22;0.60;;;0.22;;
83184;SDS011;73080;48.768;11.528;2023-12-22T04:23:47;0.68;;;0.25;;
83184;SDS011;73080;48.768;11.528;2023-12-22T04:26:12;1.67;;;0.20;;
83184;SDS011;73080;48.768;11.528;2023-12-22T04:28:38;3.15;;;0.35;;
83184;SDS011;73080;48.768;11.528;2023-12-22T04:31:03;0.57;;;0.25;;
83184;SDS011;73080;48.768;11.528;2023-12-22T04:33:31;1.15;;;0.60;;
83184;SDS011;73080;48.768;11.528;2023-12-22T04:35:57;0.55;;;0.20;;
83184;SDS011;73080;48.768;11.528;2023-12-22T04:38:22;1.67;;;0.30;;
83184;SDS011;73080;48.768;11.528;2023-12-22T04:40:47;1.73;;;0.53;;
83184;SDS011;73080;48.768;11.528;2023-12-22T04:43:15;1.50;;;0.47;;
83184;SDS011;73080;48.768;11.528;2023-12-22T04:45:43;1.58;;;0.47;;
83184;SDS011;73080;48.768;11.528;2023-12-22T04:48:09;1.77;;;0.30;;
83184;SDS011;73080;48.768;11.528;2023-12-22T04:50:34;1.40;;;0.50;;
83184;SDS011;73080;48.768;11.528;2023-12-22T04:52:59;1.47;;;0.30;;
83184;SDS011;73080;48.768;11.528;2023-12-22T04:55:25;0.20;;;0.17;;
83184;SDS011;73080;48.768;11.528;2023-12-22T04:57:50;0.53;;;0.40;;
83184;SDS011;73080;48.768;11.528;2023-12-22T05:00:21;0.60;;;0.30;;
83184;SDS011;73080;48.768;11.528;2023-12-22T05:02:46;0.57;;;0.30;;
83184;SDS011;73080;48.768;11.528;2023-12-22T05:05:15;0.75;;;0.30;;
83184;SDS011;73080;48.768;11.528;2023-12-22T05:07:40;2.08;;;0.32;;
83184;SDS011;73080;48.768;11.528;2023-12-22T05:10:08;0.87;;;0.40;;
83184;SDS011;73080;48.768;11.528;2023-12-22T05:12:34;1.45;;;0.57;;
83184;SDS011;73080;48.768;11.528;2023-12-22T05:14:59;3.58;;;0.82;;
83184;SDS011;73080;48.768;11.528;2023-12-22T05:17:25;0.20;;;0.20;;
83184;SDS011;73080;48.768;11.528;2023-12-22T05:19:50;2.72;;;0.30;;
83184;SDS011;73080;48.768;11.528;2023-12-22T05:22:15;0.63;;;0.20;;
83184;SDS011;73080;48.768;11.528;2023-12-22T05:24:41;1.77;;;0.40;;
83184;SDS011;73080;48.768;11.528;2023-12-22T05:27:06;0.90;;;0.40;;
83184;SDS011;73080;48.768;11.528;2023-12-22T05:29:31;0.53;;;0.20;;
83184;SDS011;73080;48.768;11.528;2023-12-22T05:31:57;2.00;;;0.30;;
83184;SDS011;73080;48.768;11.528;2023-12-22T05:34:22;0.87;;;0.30;;
83184;SDS011;73080;48.768;11.528;2023-12-22T05:36:47;1.40;;;0.28;;
83184;SDS011;73080;48.768;11.528;2023-12-22T05:39:13;0.65;;;0.30;;
83184;SDS011;73080;48.768;11.528;2023-12-22T05:41:38;2.13;;;0.30;;
83184;SDS011;73080;48.768;11.528;2023-12-22T05:44:04;0.32;;;0.20;;
83184;SDS011;73080;48.768;11.528;2023-12-22T05:46:30;0.77;;;0.40;;
83184;SDS011;73080;48.768;11.528;2023-12-22T05:48:55;1.57;;;0.37;;
83184;SDS011;73080;48.768;11.528;2023-12-22T05:51:23;0.63;;;0.30;;
83184;SDS011;73080;48.768;11.528;2023-12-22T05:53:48;0.95;;;0.40;;
83184;SDS011;73080;48.768;11.528;2023-12-22T05:56:20;0.70;;;0.35;;
83184;SDS011;73080;48.768;11.528;2023-12-22T05:58:46;1.45;;;0.40;;
83184;SDS011;73080;48.768;11.528;2023-12-22T06:01:25;1.65;;;0.77;;
83184;SDS011;73080;48.768;11.528;2023-12-22T06:03:50;1.77;;;0.75;;
83184;SDS011;73080;48.768;11.528;2023-12-22T06:06:16;1.67;;;0.60;;
83184;SDS011;73080;48.768;11.528;2023-12-22T06:08:41;2.47;;;0.73;;
83184;SDS011;73080;48.768;11.528;2023-12-22T06:11:07;2.25;;;0.77;;
83184;SDS011;73080;48.768;11.528;2023-12-22T06:13:32;3.13;;;1.10;;
83184;SDS011;73080;48.768;11.528;2023-12-22T06:15:57;4.03;;;1.60;;
83184;SDS011;73080;48.768;11.528;2023-12-22T06:18:23;3.83;;;1.23;;
83184;SDS011;73080;48.768;11.528;2023-12-22T06:20:48;1.42;;;0.60;;
83184;SDS011;73080;48.768;11.528;2023-12-22T06:23:18;1.40;;;0.55;;
83184;SDS011;73080;48.768;11.528;2023-12-22T06:25:43;4.38;;;1.13;;
83184;SDS011;73080;48.768;11.528;2023-12-22T06:28:12;0.88;;;0.45;;
83184;SDS011;73080;48.768;11.528;2023-12-22T06:30:37;1.20;;;0.45;;
83184;SDS011;73080;48.768;11.528;2023-12-22T06:33:03;1.77;;;0.73;;
83184;SDS011;73080;48.768;11.528;2023-12-22T06:35:29;1.17;;;0.50;;
83184;SDS011;73080;48.768;11.528;2023-12-22T06:37:54;1.97;;;0.60;;
83184;SDS011;73080;48.768;11.528;2023-12-22T06:40:19;2.65;;;0.88;;
83184;SDS011;73080;48.768;11.528;2023-12-22T06:42:45;2.65;;;1.17;;
83184;SDS011;73080;48.768;11.528;2023-12-22T06:45:10;2.35;;;0.90;;
83184;SDS011;73080;48.768;11.528;2023-12-22T06:47:36;2.17;;;0.80;;
83184;SDS011;73080;48.768;11.528;2023-12-22T06:50:02;3.17;;;1.00;;
83184;SDS011;73080;48.768;11.528;2023-12-22T06:52:28;1.98;;;0.60;;
83184;SDS011;73080;48.768;11.528;2023-12-22T06:54:53;4.40;;;1.02;;
83184;SDS011;73080;48.768;11.528;2023-12-22T06:57:21;5.90;;;1.10;;
83184;SDS011;73080;48.768;11.528;2023-12-22T06:59:46;4.57;;;1.10;;
83184;SDS011;73080;48.768;11.528;2023-12-22T07:02:12;4.53;;;0.80;;
83184;SDS011;73080;48.768;11.528;2023-12-22T07:07:26;5.80;;;1.27;;
83184;SDS011;73080;48.768;11.528;2023-12-22T07:09:51;6.63;;;1.35;;
83184;SDS011;73080;48.768;11.528;2023-12-22T07:12:16;4.68;;;0.98;;
83184;SDS011;73080;48.768;11.528;2023-12-22T07:14:45;5.55;;;1.40;;
83184;SDS011;73080;48.768;11.528;2023-12-22T07:17:10;6.00;;;1.00;;
83184;SDS011;73080;48.768;11.528;2023-12-22T07:19:35;4.20;;;0.82;;
83184;SDS011;73080;48.768;11.528;2023-12-22T07:22:01;2.60;;;0.80;;
83184;SDS011;73080;48.768;11.528;2023-12-22T07:24:26;4.03;;;1.20;;
83184;SDS011;73080;48.768;11.528;2023-12-22T07:26:51;3.13;;;0.80;;
83184;SDS011;73080;48.768;11.528;2023-12-22T07:29:17;1.57;;;0.70;;
83184;SDS011;73080;48.768;11.528;2023-12-22T07:31:42;1.63;;;0.60;;
83184;SDS011;73080;48.768;11.528;2023-12-22T07:34:07;5.68;;;0.98;;
83184;SDS011;73080;48.768;11.528;2023-12-22T07:36:33;2.30;;;0.80;;
83184;SDS011;73080;48.768;11.528;2023-12-22T07:38:58;3.83;;;1.10;;
83184;SDS011;73080;48.768;11.528;2023-12-22T07:41:24;3.97;;;1.13;;
83184;SDS011;73080;48.768;11.528;2023-12-22T07:43:49;4.00;;;0.90;;
83184;SDS011;73080;48.768;11.528;2023-12-22T07:46:18;3.10;;;1.30;;
83184;SDS011;73080;48.768;11.528;2023-12-22T07:48:44;2.97;;;0.80;;
83184;SDS011;73080;48.768;11.528;2023-12-22T07:51:09;2.75;;;0.75;;
83184;SDS011;73080;48.768;11.528;2023-12-22T07:53:35;7.93;;;2.15;;
83184;SDS011;73080;48.768;11.528;2023-12-22T07:56:00;4.43;;;1.40;;
83184;SDS011;73080;48.768;11.528;2023-12-22T07:58:25;5.35;;;2.08;;
83184;SDS011;73080;48.768;11.528;2023-12-22T08:00:51;4.50;;;1.83;;
83184;SDS011;73080;48.768;11.528;2023-12-22T08:03:16;5.83;;;1.80;;
83184;SDS011;73080;48.768;11.528;2023-12-22T08:05:41;3.88;;;1.10;;
83184;SDS011;73080;48.768;11.528;2023-12-22T08:08:07;4.45;;;1.10;;
83184;SDS011;73080;48.768;11.528;2023-12-22T08:10:32;4.18;;;1.08;;
83184;SDS011;73080;48.768;11.528;2023-12-22T08:13:01;4.03;;;1.00;;
83184;SDS011;73080;48.768;11.528;2023-12-22T08:15:29;2.85;;;0.73;;
83184;SDS011;73080;48.768;11.528;2023-12-22T08:17:55;5.07;;;1.15;;
83184;SDS011;73080;48.768;11.528;2023-12-22T08:20:20;5.17;;;1.10;;
83184;SDS011;73080;48.768;11.528;2023-12-22T08:22:46;3.28;;;1.38;;
83184;SDS011;73080;48.768;11.528;2023-12-22T08:25:13;3.47;;;1.00;;
83184;SDS011;73080;48.768;11.528;2023-12-22T08:27:39;2.78;;;0.90;;
83184;SDS011;73080;48.768;11.528;2023-12-22T08:30:04;2.60;;;0.95;;
83184;SDS011;73080;48.768;11.528;2023-12-22T08:32:30;3.22;;;0.85;;
83184;SDS011;73080;48.768;11.528;2023-12-22T08:34:56;1.95;;;0.73;;
83184;SDS011;73080;48.768;11.528;2023-12-22T08:37:21;2.93;;;0.80;;
83184;SDS011;73080;48.768;11.528;2023-12-22T08:39:46;3.30;;;1.00;;
83184;SDS011;73080;48.768;11.528;2023-12-22T08:42:12;3.25;;;0.90;;
83184;SDS011;73080;48.768;11.528;2023-12-22T08:44:37;3.27;;;1.03;;
83184;SDS011;73080;48.768;11.528;2023-12-22T08:47:02;2.85;;;0.70;;
83184;SDS011;73080;48.768;11.528;2023-12-22T08:49:28;6.00;;;1.20;;
83184;SDS011;73080;48.768;11.528;2023-12-22T08:51:53;4.10;;;1.13;;
83184;SDS011;73080;48.768;11.528;2023-12-22T08:54:18;3.33;;;1.00;;
83184;SDS011;73080;48.768;11.528;2023-12-22T08:56:47;2.93;;;0.93;;
83184;SDS011;73080;48.768;11.528;2023-12-22T08:59:12;3.92;;;1.05;;
83184;SDS011;73080;48.768;11.528;2023-12-22T09:01:37;3.08;;;0.90;;
83184;SDS011;73080;48.768;11.528;2023-12-22T09:04:03;3.60;;;1.15;;
83184;SDS011;73080;48.768;11.528;2023-12-22T09:06:28;3.00;;;0.80;;
83184;SDS011;73080;48.768;11.528;2023-12-22T09:08:53;2.53;;;0.80;;
83184;SDS011;73080;48.768;11.528;2023-12-22T09:11:19;2.35;;;0.93;;
83184;SDS011;73080;48.768;11.528;2023-12-22T09:13:45;2.45;;;0.73;;
83184;SDS011;73080;48.768;11.528;2023-12-22T09:16:10;4.78;;;1.20;;
83184;SDS011;73080;48.768;11.528;2023-12-22T09:18:36;3.42;;;0.88;;
83184;SDS011;73080;48.768;11.528;2023-12-22T09:21:02;3.97;;;0.80;;
83184;SDS011;73080;48.768;11.528;2023-12-22T09:23:27;3.15;;;0.90;;
83184;SDS011;73080;48.768;11.528;2023-12-22T09:25:53;3.78;;;0.90;;
83184;SDS011;73080;48.768;11.528;2023-12-22T09:28:18;2.95;;;1.10;;
83184;SDS011;73080;48.768;11.528;2023-12-22T09:30:44;3.83;;;0.77;;
83184;SDS011;73080;48.768;11.528;2023-12-22T09:33:09;3.58;;;1.00;;
83184;SDS011;73080;48.768;11.528;2023-12-22T09:35:35;2.45;;;0.80;;
83184;SDS011;73080;48.768;11.528;2023-12-22T09:38:01;3.70;;;0.90;;
83184;SDS011;73080;48.768;11.528;2023-12-22T09:40:27;5.07;;;1.20;;
83184;SDS011;73080;48.768;11.528;2023-12-22T09:42:55;3.88;;;1.20;;
83184;SDS011;73080;48.768;11.528;2023-12-22T09:45:22;4.43;;;1.20;;
83184;SDS011;73080;48.768;11.528;2023-12-22T09:47:48;7.35;;;1.65;;
83184;SDS011;73080;48.768;11.528;2023-12-22T09:50:15;8.05;;;1.70;;
83184;SDS011;73080;48.768;11.528;2023-12-22T09:52:42;5.43;;;1.50;;
83184;SDS011;73080;48.768;11.528;2023-12-22T09:55:08;4.22;;;1.50;;
83184;SDS011;73080;48.768;11.528;2023-12-22T09:57:39;5.55;;;1.23;;
83184;SDS011;73080;48.768;11.528;2023-12-22T10:00:14;4.07;;;1.00;;
83184;SDS011;73080;48.768;11.528;2023-12-22T10:02:40;3.53;;;1.75;;
83184;SDS011;73080;48.768;11.528;2023-12-22T10:05:06;5.72;;;1.25;;
83184;SDS011;73080;48.768;11.528;2023-12-22T10:07:31;4.60;;;1.58;;
83184;SDS011;73080;48.768;11.528;2023-12-22T10:09:57;6.55;;;2.20;;
83184;SDS011;73080;48.768;11.528;2023-12-22T10:12:24;5.40;;;1.92;;
83184;SDS011;73080;48.768;11.528;2023-12-22T10:14:52;10.73;;;3.05;;
83184;SDS011;73080;48.768;11.528;2023-12-22T10:17:18;5.05;;;1.80;;
83184;SDS011;73080;48.768;11.528;2023-12-22T10:19:43;6.80;;;2.83;;
83184;SDS011;73080;48.768;11.528;2023-12-22T10:22:09;9.43;;;1.65;;
83184;SDS011;73080;48.768;11.528;2023-12-22T10:24:46;5.83;;;2.10;;
83184;SDS011;73080;48.768;11.528;2023-12-22T10:27:12;6.65;;;1.40;;
83184;SDS011;73080;48.768;11.528;2023-12-22T10:29:42;6.13;;;1.85;;
83184;SDS011;73080;48.768;11.528;2023-12-22T10:32:07;7.40;;;1.80;;
83184;SDS011;73080;48.768;11.528;2023-12-22T10:34:33;7.80;;;1.75;;
83184;SDS011;73080;48.768;11.528;2023-12-22T10:36:58;5.67;;;1.37;;
83184;SDS011;73080;48.768;11.528;2023-12-22T10:39:27;6.15;;;1.70;;
83184;SDS011;73080;48.768;11.528;2023-12-22T10:41:54;7.25;;;2.10;;
83184;SDS011;73080;48.768;11.528;2023-12-22T10:44:19;5.88;;;1.48;;
83184;SDS011;73080;48.768;11.528;2023-12-22T10:46:46;5.47;;;1.45;;
83184;SDS011;73080;48.768;11.528;2023-12-22T10:49:12;4.60;;;1.48;;
83184;SDS011;73080;48.768;11.528;2023-12-22T10:51:38;5.88;;;1.58;;
83184;SDS011;73080;48.768;11.528;2023-12-22T10:54:04;5.33;;;1.80;;
83184;SDS011;73080;48.768;11.528;2023-12-22T10:56:30;7.05;;;1.40;;
83184;SDS011;73080;48.768;11.528;2023-12-22T10:58:55;4.87;;;1.33;;
83184;SDS011;73080;48.768;11.528;2023-12-22T11:01:21;4.50;;;1.50;;
83184;SDS011;73080;48.768;11.528;2023-12-22T11:03:50;2.53;;;0.80;;
83184;SDS011;73080;48.768;11.528;2023-12-22T11:06:16;4.90;;;1.00;;
83184;SDS011;73080;48.768;11.528;2023-12-22T11:08:43;4.43;;;1.27;;
83184;SDS011;73080;48.768;11.528;2023-12-22T11:11:13;2.92;;;0.93;;
83184;SDS011;73080;48.768;11.528;2023-12-22T11:13:41;2.30;;;0.60;;
83184;SDS011;73080;48.768;11.528;2023-12-22T11:16:08;2.45;;;0.75;;
83184;SDS011;73080;48.768;11.528;2023-12-22T11:18:37;4.30;;;0.90;;
83184;SDS011;73080;48.768;11.528;2023-12-22T11:21:06;2.70;;;1.00;;
83184;SDS011;73080;48.768;11.528;2023-12-22T11:23:34;2.20;;;0.68;;
83184;SDS011;73080;48.768;11.528;2023-12-22T11:26:01;3.28;;;1.38;;
83184;SDS011;73080;48.768;11.528;2023-12-22T11:28:30;5.13;;;1.30;;
83184;SDS011;73080;48.768;11.528;2023-12-22T11:30:58;4.25;;;1.35;;
83184;SDS011;73080;48.768;11.528;2023-12-22T11:33:24;5.22;;;1.88;;
83184;SDS011;73080;48.768;11.528;2023-12-22T11:35:50;7.82;;;2.65;;
83184;SDS011;73080;48.768;11.528;2023-12-22T11:38:20;7.53;;;2.67;;
83184;SDS011;73080;48.768;11.528;2023-12-22T11:40:46;6.43;;;1.98;;
83184;SDS011;73080;48.768;11.528;2023-12-22T11:43:16;9.93;;;3.30;;
83184;SDS011;73080;48.768;11.528;2023-12-22T11:45:42;5.85;;;1.55;;
83184;SDS011;73080;48.768;11.528;2023-12-22T11:48:10;4.68;;;1.30;;
83184;SDS011;73080;48.768;11.528;2023-12-22T11:50:36;4.50;;;1.60;;
83184;SDS011;73080;48.768;11.528;2023-12-22T11:53:21;8.60;;;2.15;;
83184;SDS011;73080;48.768;11.528;2023-12-22T12:01:10;9.75;;;2.10;;
83184;SDS011;73080;48.768;11.528;2023-12-22T12:03:52;9.10;;;2.42;;
83184;SDS011;73080;48.768;11.528;2023-12-22T12:08:51;3.13;;;1.25;;
83184;SDS011;73080;48.768;11.528;2023-12-22T12:11:17;9.32;;;1.80;;
83184;SDS011;73080;48.768;11.528;2023-12-22T12:13:43;7.47;;;2.03;;
83184;SDS011;73080;48.768;11.528;2023-12-22T12:16:09;9.63;;;1.80;;
83184;SDS011;73080;48.768;11.528;2023-12-22T12:18:36;7.03;;;1.90;;
83184;SDS011;73080;48.768;11.528;2023-12-22T12:21:01;8.15;;;3.22;;
83184;SDS011;73080;48.768;11.528;2023-12-22T12:23:27;9.30;;;2.30;;
83184;SDS011;73080;48.768;11.528;2023-12-22T12:25:53;10.90;;;2.53;;
83184;SDS011;73080;48.768;11.528;2023-12-22T12:28:24;9.90;;;2.15;;
83184;SDS011;73080;48.768;11.528;2023-12-22T12:30:56;8.13;;;1.98;;
83184;SDS011;73080;48.768;11.528;2023-12-22T12:33:26;7.38;;;2.15;;
83184;SDS011;73080;48.768;11.528;2023-12-22T12:35:52;11.88;;;2.90;;
83184;SDS011;73080;48.768;11.528;2023-12-22T12:38:23;8.35;;;1.80;;
83184;SDS011;73080;48.768;11.528;2023-12-22T12:41:00;9.13;;;2.25;;
83184;SDS011;73080;48.768;11.528;2023-12-22T12:43:29;9.68;;;1.85;;
83184;SDS011;73080;48.768;11.528;2023-12-22T12:45:54;7.20;;;2.07;;
83184;SDS011;73080;48.768;11.528;2023-12-22T12:48:19;5.27;;;2.33;;
83184;SDS011;73080;48.768;11.528;2023-12-22T12:50:46;10.00;;;1.88;;
83184;SDS011;73080;48.768;11.528;2023-12-22T12:53:11;6.63;;;1.60;;
83184;SDS011;73080;48.768;11.528;2023-12-22T12:55:37;9.27;;;1.90;;
83184;SDS011;73080;48.768;11.528;2023-12-22T12:58:02;9.70;;;2.00;;
83184;SDS011;73080;48.768;11.528;2023-12-22T13:00:29;8.32;;;1.70;;
83184;SDS011;73080;48.768;11.528;2023-12-22T13:02:57;8.02;;;2.00;;
83184;SDS011;73080;48.768;11.528;2023-12-22T13:05:28;8.63;;;1.75;;
83184;SDS011;73080;48.768;11.528;2023-12-22T13:08:02;8.90;;;1.60;;
83184;SDS011;73080;48.768;11.528;2023-12-22T13:10:34;7.53;;;1.83;;
83184;SDS011;73080;48.768;11.528;2023-12-22T13:12:59;4.67;;;1.60;;
83184;SDS011;73080;48.768;11.528;2023-12-22T13:15:25;12.00;;;2.90;;
83184;SDS011;73080;48.768;11.528;2023-12-22T13:17:50;11.43;;;3.27;;
83184;SDS011;73080;48.768;11.528;2023-12-22T13:20:16;9.25;;;2.47;;
83184;SDS011;73080;48.768;11.528;2023-12-22T13:22:41;8.70;;;2.17;;
83184;SDS011;73080;48.768;11.528;2023-12-22T13:25:07;10.57;;;2.00;;
83184;SDS011;73080;48.768;11.528;2023-12-22T13:27:45;12.43;;;3.08;;
83184;SDS011;73080;48.768;11.528;2023-12-22T13:30:14;8.85;;;2.08;;
83184;SDS011;73080;48.768;11.528;2023-12-22T13:32:40;12.63;;;3.00;;
83184;SDS011;73080;48.768;11.528;2023-12-22T13:35:06;7.07;;;1.95;;
83184;SDS011;73080;48.768;11.528;2023-12-22T13:37:39;11.68;;;2.30;;
83184;SDS011;73080;48.768;11.528;2023-12-22T13:40:09;12.13;;;2.85;;
83184;SDS011;73080;48.768;11.528;2023-12-22T13:42:37;10.80;;;2.70;;
83184;SDS011;73080;48.768;11.528;2023-12-22T13:45:03;8.30;;;2.22;;
83184;SDS011;73080;48.768;11.528;2023-12-22T13:47:28;8.40;;;1.42;;
83184;SDS011;73080;48.768;11.528;2023-12-22T13:49:54;7.97;;;2.00;;
83184;SDS011;73080;48.768;11.528;2023-12-22T13:52:29;5.57;;;1.70;;
83184;SDS011;73080;48.768;11.528;2023-12-22T13:54:55;8.18;;;2.17;;
83184;SDS011;73080;48.768;11.528;2023-12-22T13:57:20;5.87;;;1.60;;
83184;SDS011;73080;48.768;11.528;2023-12-22T13:59:47;9.60;;;2.72;;
83184;SDS011;73080;48.768;11.528;2023-12-22T14:02:12;6.10;;;1.97;;
83184;SDS011;73080;48.768;11.528;2023-12-22T14:04:37;5.70;;;1.90;;
83184;SDS011;73080;48.768;11.528;2023-12-22T14:07:06;6.23;;;1.20;;
83184;SDS011;73080;48.768;11.528;2023-12-22T14:09:31;5.10;;;1.48;;
83184;SDS011;73080;48.768;11.528;2023-12-22T14:11:57;4.57;;;1.17;;
83184;SDS011;73080;48.768;11.528;2023-12-22T14:14:22;6.85;;;1.45;;
83184;SDS011;73080;48.768;11.528;2023-12-22T14:16:47;6.27;;;1.53;;
83184;SDS011;73080;48.768;11.528;2023-12-22T14:19:12;6.05;;;1.70;;
83184;SDS011;73080;48.768;11.528;2023-12-22T14:21:38;5.40;;;1.77;;
83184;SDS011;73080;48.768;11.528;2023-12-22T14:24:03;10.93;;;1.60;;
83184;SDS011;73080;48.768;11.528;2023-12-22T14:26:28;6.47;;;1.60;;
83184;SDS011;73080;48.768;11.528;2023-12-22T14:28:54;9.07;;;3.73;;
83184;SDS011;73080;48.768;11.528;2023-12-22T14:31:19;12.87;;;3.70;;
83184;SDS011;73080;48.768;11.528;2023-12-22T14:33:44;7.53;;;2.60;;
83184;SDS011;73080;48.768;11.528;2023-12-22T14:36:09;7.17;;;2.80;;
83184;SDS011;73080;48.768;11.528;2023-12-22T14:38:35;7.17;;;2.10;;
83184;SDS011;73080;48.768;11.528;2023-12-22T14:41:00;5.97;;;1.80;;
83184;SDS011;73080;48.768;11.528;2023-12-22T14:43:25;8.15;;;2.70;;